Time;durP1;ratioP1;P1;durP2;ratioP2;P2;SDS_P1;SDS_P2;PMS_P1;PMS_P2;Temp;Humidity;BMP_temperature;BMP_pressure;BME280_temperature;BME280_humidity;BME280_pressure;Samples;Min_cycle;Max_cycle;Signal;HPM_P1;HPM_P2
2023/10/17 00:01:44;;;;;;;4.18;2.13;;;10.00;99.90;;;;;;4133438;28;20040;-70
2023/10/17 00:03:45;;;;;;;5.10;2.30;;;10.00;99.90;;;;;;4132355;28;20093;-70
2023/10/17 00:05:46;;;;;;;3.08;2.25;;;10.00;99.90;;;;;;4133626;28;20038;-69
2023/10/17 00:07:46;;;;;;;3.80;2.20;;;10.00;99.90;;;;;;4114988;28;20042;-69
2023/10/17 00:09:49;;;;;;;3.03;2.10;;;10.00;99.90;;;;;;4126355;28;20027;-69
2023/10/17 00:14:02;;;;;;;4.28;2.42;;;10.00;99.90;;;;;;4129184;28;20030;-69
2023/10/17 00:16:05;;;;;;;4.13;2.15;;;10.00;99.90;;;;;;4132276;28;20041;-69
2023/10/17 00:18:15;;;;;;;4.70;2.58;;;10.00;99.90;;;;;;4129187;28;20391;-70
2023/10/17 00:20:17;;;;;;;3.55;2.30;;;10.00;99.90;;;;;;4126514;28;20038;-69
2023/10/17 00:22:23;;;;;;;4.90;2.50;;;10.10;99.90;;;;;;4090439;28;20091;-70
2023/10/17 00:24:25;;;;;;;3.63;2.70;;;10.00;99.90;;;;;;4119723;28;20485;-69
2023/10/17 00:26:26;;;;;;;5.45;2.92;;;10.10;99.90;;;;;;4129184;28;20402;-69
2023/10/17 00:28:27;;;;;;;4.85;2.88;;;10.10;99.90;;;;;;4112396;28;20034;-69
2023/10/17 00:30:30;;;;;;;8.00;3.58;;;10.10;99.90;;;;;;4127601;28;20031;-69
2023/10/17 00:32:31;;;;;;;5.63;3.20;;;10.10;99.90;;;;;;4129918;28;20422;-70
2023/10/17 00:34:34;;;;;;;6.90;3.25;;;10.10;99.90;;;;;;4129799;28;20117;-69
2023/10/17 00:36:36;;;;;;;;;;;10.10;99.90;;;;;;4129668;28;20470;-72
2023/10/17 00:38:39;;;;;;;4.22;3.03;;;10.10;99.90;;;;;;4126640;28;19921;-71
2023/10/17 00:40:47;;;;;;;5.20;3.17;;;10.10;99.90;;;;;;4111927;28;20058;-71
2023/10/17 00:42:48;;;;;;;5.93;3.40;;;10.10;99.90;;;;;;4127490;28;20041;-71
2023/10/17 00:44:49;;;;;;;6.85;3.60;;;10.00;99.90;;;;;;4123589;28;20077;-71
2023/10/17 00:46:50;;;;;;;7.57;3.40;;;10.00;99.90;;;;;;4128853;28;20038;-71
2023/10/17 00:48:52;;;;;;;5.38;2.90;;;10.00;99.90;;;;;;4132320;28;20038;-71
2023/10/17 00:50:57;;;;;;;;;;;10.00;99.90;;;;;;4129186;28;20160;-71
2023/10/17 00:52:58;;;;;;;5.38;2.78;;;10.00;99.90;;;;;;4120748;28;19910;-72
2023/10/17 00:54:59;;;;;;;6.32;3.30;;;10.00;99.90;;;;;;4131900;28;20108;-71
2023/10/17 00:57:00;;;;;;;6.95;3.10;;;10.00;99.90;;;;;;4129013;28;20467;-71
2023/10/17 00:59:04;;;;;;;4.85;3.35;;;10.00;99.90;;;;;;4131854;28;20467;-71
2023/10/17 01:01:20;;;;;;;5.93;2.88;;;10.00;99.90;;;;;;4111789;28;20435;-72
2023/10/17 01:03:21;;;;;;;4.93;3.10;;;10.00;99.90;;;;;;4061606;28;20077;-71
2023/10/17 01:05:23;;;;;;;6.18;3.45;;;9.90;99.90;;;;;;4050490;28;20050;-72
2023/10/17 01:07:26;;;;;;;4.18;2.90;;;9.90;99.90;;;;;;4129943;28;20035;-71
2023/10/17 01:09:28;;;;;;;11.60;3.35;;;10.00;99.90;;;;;;4107620;28;20051;-71
2023/10/17 01:11:29;;;;;;;4.13;2.40;;;9.90;99.90;;;;;;4129193;28;20069;-71
2023/10/17 01:13:30;;;;;;;4.40;2.70;;;9.90;99.90;;;;;;4128716;28;20113;-71
2023/10/17 01:15:37;;;;;;;4.20;2.70;;;9.90;99.90;;;;;;4109871;28;20499;-71
2023/10/17 01:17:38;;;;;;;5.18;3.13;;;9.90;99.90;;;;;;4122683;28;20046;-70
2023/10/17 01:19:39;;;;;;;6.93;3.03;;;9.90;99.90;;;;;;4106833;28;20447;-71
2023/10/17 01:21:42;;;;;;;5.35;3.17;;;9.90;99.90;;;;;;4128296;28;20045;-71
2023/10/17 01:23:43;;;;;;;5.32;3.45;;;9.90;99.90;;;;;;4125626;28;20037;-71
2023/10/17 01:25:44;;;;;;;4.35;3.30;;;9.80;99.90;;;;;;4128110;28;20050;-71
2023/10/17 01:27:45;;;;;;;4.53;2.95;;;9.90;99.90;;;;;;4112296;28;20045;-72
2023/10/17 01:29:45;;;;;;;5.82;3.55;;;9.80;99.90;;;;;;4129050;28;20039;-71
2023/10/17 01:31:48;;;;;;;5.72;3.47;;;9.90;99.90;;;;;;4125713;28;20042;-72
2023/10/17 01:33:54;;;;;;;12.05;4.18;;;9.90;99.90;;;;;;4132499;28;20065;-71
2023/10/17 01:35:57;;;;;;;5.75;3.92;;;9.90;99.90;;;;;;4125621;28;20038;-71
2023/10/17 01:37:58;;;;;;;6.85;4.43;;;9.80;99.90;;;;;;4128777;28;20058;-71
2023/10/17 01:39:58;;;;;;;5.57;3.70;;;9.90;99.90;;;;;;4129062;28;20058;-71
2023/10/17 01:41:59;;;;;;;4.93;3.63;;;9.80;99.90;;;;;;4128120;28;20386;-71
2023/10/17 01:44:01;;;;;;;7.53;3.53;;;9.80;99.90;;;;;;4127402;28;20030;-71
2023/10/17 01:46:01;;;;;;;5.63;3.50;;;9.80;99.90;;;;;;4101629;28;20046;-71
2023/10/17 01:48:04;;;;;;;6.13;3.72;;;9.80;99.90;;;;;;4054873;28;20038;-73
2023/10/17 01:50:08;;;;;;;5.60;3.97;;;9.80;99.90;;;;;;4057701;28;20509;-73
2023/10/17 01:52:11;;;;;;;6.95;4.25;;;9.80;99.90;;;;;;4127966;28;20031;-72
2023/10/17 01:54:16;;;;;;;6.60;4.28;;;9.80;99.90;;;;;;4126153;28;20049;-74
2023/10/17 01:56:20;;;;;;;8.32;4.38;;;9.90;99.90;;;;;;4128544;28;20054;-72
2023/10/17 01:58:22;;;;;;;6.25;4.53;;;9.90;99.90;;;;;;4127386;28;20739;-72
2023/10/17 02:00:38;;;;;;;10.48;5.45;;;9.90;99.90;;;;;;4128086;28;20494;-73
2023/10/17 02:02:39;;;;;;;8.10;4.95;;;9.90;99.90;;;;;;4126162;28;20372;-72
2023/10/17 02:04:40;;;;;;;7.85;4.80;;;9.90;99.90;;;;;;4132034;28;20069;-73
2023/10/17 02:06:42;;;;;;;8.60;5.50;;;9.90;99.90;;;;;;4123581;28;20038;-73
2023/10/17 02:08:44;;;;;;;8.53;4.53;;;9.90;99.90;;;;;;4127161;28;20462;-72
2023/10/17 02:10:47;;;;;;;9.43;5.30;;;9.90;99.90;;;;;;4126870;28;20383;-73
2023/10/17 02:12:48;;;;;;;7.05;4.65;;;9.90;99.90;;;;;;4111538;28;20479;-73
2023/10/17 02:14:49;;;;;;;7.05;4.72;;;9.90;99.90;;;;;;4127981;28;20046;-72
2023/10/17 02:16:50;;;;;;;8.07;5.13;;;9.90;99.90;;;;;;4127887;28;20030;-72
2023/10/17 02:18:51;;;;;;;8.00;5.53;;;9.90;99.90;;;;;;4125797;28;20039;-73
2023/10/17 02:20:52;;;;;;;7.60;5.03;;;9.90;99.90;;;;;;4123782;28;20045;-73
2023/10/17 02:22:53;;;;;;;9.40;5.60;;;9.90;99.90;;;;;;4127768;28;20038;-72
2023/10/17 02:24:56;;;;;;;9.85;5.50;;;9.90;99.90;;;;;;4125893;28;20056;-72
2023/10/17 02:27:00;;;;;;;7.18;4.82;;;9.80;99.90;;;;;;4127277;28;20088;-72
2023/10/17 02:29:05;;;;;;;7.35;5.10;;;9.80;99.90;;;;;;4128154;28;20871;-73
2023/10/17 02:31:06;;;;;;;8.82;5.03;;;9.80;99.90;;;;;;4127807;28;20030;-73
2023/10/17 02:33:28;;;;;;;7.07;4.53;;;9.70;99.90;;;;;;4127893;28;20474;-72
2023/10/17 02:35:39;;;;;;;10.98;5.28;;;9.70;99.90;;;;;;4125627;28;20042;-72
2023/10/17 02:37:43;;;;;;;;;;;9.70;99.90;;;;;;4126973;28;20087;-72
2023/10/17 02:39:44;;;;;;;8.80;4.95;;;9.70;99.90;;;;;;4107986;28;19966;-72
2023/10/17 02:41:55;;;;;;;11.00;6.85;;;9.70;99.90;;;;;;4127626;28;20037;-72
2023/10/17 02:43:56;;;;;;;10.85;6.97;;;9.60;99.90;;;;;;4127013;28;20085;-72
2023/10/17 02:46:04;;;;;;;14.65;9.73;;;9.60;99.90;;;;;;4123178;28;20434;-73
2023/10/17 02:50:45;;;;;;;16.45;10.80;;;9.60;99.90;;;;;;4126827;28;20463;-72
2023/10/17 02:52:51;;;;;;;15.40;11.07;;;9.50;99.90;;;;;;4123583;28;20034;-72
2023/10/17 02:54:56;;;;;;;20.48;10.93;;;9.50;99.90;;;;;;4127452;28;20061;-72
2023/10/17 02:56:56;;;;;;;16.33;10.32;;;9.40;99.90;;;;;;4123376;28;20030;-70
2023/10/17 02:59:04;;;;;;;19.42;11.02;;;9.40;99.90;;;;;;4130041;28;20041;-70
2023/10/17 03:01:05;;;;;;;19.38;11.75;;;9.30;99.90;;;;;;4121155;28;20046;-70
2023/10/17 03:03:14;;;;;;;19.63;10.85;;;9.30;99.90;;;;;;4125102;28;20380;-71
2023/10/17 03:05:15;;;;;;;15.77;9.85;;;9.20;99.90;;;;;;4119463;28;20042;-71
2023/10/17 03:07:16;;;;;;;13.95;9.68;;;9.30;99.90;;;;;;4125017;28;20092;-70
2023/10/17 03:12:07;;;;;;;11.43;8.00;;;9.30;99.90;;;;;;4126643;28;20042;-70
2023/10/17 03:13:47;;;;;;;15.15;9.40;;;9.30;99.90;;;;;;4119659;28;20045;-71
2023/10/17 03:15:53;;;;;;;15.30;9.23;;;9.40;99.90;;;;;;4123761;28;20051;-70
2023/10/17 03:17:54;;;;;;;13.65;8.80;;;9.40;99.90;;;;;;4126992;28;20039;-70
2023/10/17 03:19:57;;;;;;;13.73;9.60;;;9.50;99.90;;;;;;4127565;28;20038;-70
2023/10/17 03:22:15;;;;;;;11.75;8.48;;;9.50;99.90;;;;;;4129521;28;21722;-70
2023/10/17 03:24:19;;;;;;;10.05;7.68;;;9.50;99.90;;;;;;4124641;28;20085;-70
2023/10/17 03:26:20;;;;;;;13.82;8.32;;;9.60;99.90;;;;;;4108572;28;20411;-70
2023/10/17 03:28:22;;;;;;;13.98;8.63;;;9.60;99.90;;;;;;4124579;28;20039;-70
2023/10/17 03:30:24;;;;;;;13.35;9.15;;;9.60;99.90;;;;;;4124835;28;20034;-70
2023/10/17 03:32:25;;;;;;;17.05;9.55;;;9.60;99.90;;;;;;4126706;28;20045;-70
2023/10/17 03:34:35;;;;;;;16.40;9.80;;;9.60;99.90;;;;;;4122830;28;20479;-70
2023/10/17 03:36:42;;;;;;;19.02;10.10;;;9.50;99.90;;;;;;4124802;28;20113;-71
2023/10/17 03:38:42;;;;;;;17.58;10.27;;;9.50;99.90;;;;;;4109605;28;20066;-70
2023/10/17 03:40:53;;;;;;;17.63;10.25;;;9.40;99.90;;;;;;4119831;28;20395;-70
2023/10/17 03:42:53;;;;;;;15.98;10.05;;;9.40;99.90;;;;;;4119093;28;20026;-70
2023/10/17 03:44:54;;;;;;;13.38;8.98;;;9.30;99.90;;;;;;4123467;28;20077;-70
2023/10/17 03:46:55;;;;;;;14.10;8.82;;;9.30;99.90;;;;;;4126367;28;20372;-70
2023/10/17 03:49:00;;;;;;;14.05;7.78;;;9.30;99.90;;;;;;4110009;28;20066;-70
2023/10/17 03:53:14;;;;;;;10.07;7.10;;;9.40;99.90;;;;;;4124819;28;20404;-71
2023/10/17 03:55:21;;;;;;;11.20;7.72;;;9.50;99.90;;;;;;4124090;28;20042;-71
2023/10/17 03:57:25;;;;;;;16.05;7.97;;;9.50;99.90;;;;;;4110214;28;20395;-70
2023/10/17 03:59:38;;;;;;;13.73;7.47;;;9.50;99.90;;;;;;4125741;28;20046;-71
2023/10/17 04:01:39;;;;;;;;;;;9.50;99.90;;;;;;4112050;28;20038;-70
2023/10/17 04:03:40;;;;;;;13.75;7.93;;;9.60;99.90;;;;;;4123049;28;19910;-70
2023/10/17 04:05:40;;;;;;;14.45;7.95;;;9.60;99.90;;;;;;4126473;28;20053;-70
2023/10/17 04:07:41;;;;;;;14.05;7.88;;;9.60;99.90;;;;;;4125039;28;20046;-68
2023/10/17 04:12:06;;;;;;;11.85;7.85;;;9.60;99.90;;;;;;4125939;28;20110;-68
2023/10/17 04:14:10;;;;;;;13.02;7.85;;;9.60;99.90;;;;;;4125556;28;20492;-68
2023/10/17 04:16:16;;;;;;;13.80;7.97;;;9.60;99.90;;;;;;4124473;28;20125;-68
2023/10/17 04:18:22;;;;;;;12.15;7.18;;;9.60;99.90;;;;;;4112431;28;20039;-68
2023/10/17 04:20:22;;;;;;;12.40;7.30;;;9.60;99.90;;;;;;4128170;28;20113;-68
2023/10/17 04:22:25;;;;;;;10.88;7.00;;;9.70;99.90;;;;;;4130200;28;20086;-68
2023/10/17 04:24:27;;;;;;;9.98;6.90;;;9.60;99.90;;;;;;4131119;28;20073;-68
2023/10/17 04:26:28;;;;;;;10.50;6.37;;;9.70;99.90;;;;;;4112667;28;20042;-68
2023/10/17 04:28:29;;;;;;;11.25;7.32;;;9.60;99.90;;;;;;4130040;28;20121;-68
2023/10/17 04:30:30;;;;;;;10.15;6.90;;;9.70;99.90;;;;;;4108625;28;20432;-68
2023/10/17 04:32:33;;;;;;;11.68;7.35;;;9.60;99.90;;;;;;4130027;28;20034;-69
2023/10/17 04:34:34;;;;;;;10.25;6.88;;;9.70;99.90;;;;;;4112357;28;20077;-68
2023/10/17 04:36:38;;;;;;;12.10;6.57;;;9.60;99.90;;;;;;4125681;28;20058;-68
2023/10/17 04:38:39;;;;;;;11.05;6.60;;;9.70;99.90;;;;;;4129514;28;20154;-69
2023/10/17 04:40:50;;;;;;;10.27;6.88;;;9.70;99.90;;;;;;4129010;28;20537;-68
2023/10/17 04:45:02;;;;;;;14.07;7.18;;;9.70;99.90;;;;;;4129393;28;20500;-68
2023/10/17 04:49:07;;;;;;;12.82;6.65;;;9.70;99.90;;;;;;4130168;28;20387;-68
2023/10/17 04:51:20;;;;;;;12.88;6.68;;;9.70;99.90;;;;;;4129255;28;20034;-68
2023/10/17 04:53:35;;;;;;;12.50;6.85;;;9.60;99.90;;;;;;4131808;28;20046;-68
2023/10/17 04:55:40;;;;;;;12.63;6.22;;;9.60;99.90;;;;;;4105450;28;20050;-68
2023/10/17 04:59:59;;;;;;;10.25;6.68;;;9.60;99.90;;;;;;4132385;28;20069;-68
2023/10/17 05:04:20;;;;;;;11.70;6.75;;;9.70;99.90;;;;;;4131204;28;20084;-68
2023/10/17 05:06:24;;;;;;;11.25;6.90;;;9.70;99.90;;;;;;4108584;28;20043;-68
2023/10/17 05:08:32;;;;;;;10.90;5.82;;;9.70;99.90;;;;;;4128500;28;20394;-68
2023/10/17 06:18:17;;;;;;;8.80;5.00;;;9.20;99.90;;;;;;4123923;28;20049;-73
2023/10/17 06:20:19;;;;;;;9.73;5.13;;;9.10;99.90;;;;;;4124570;28;20042;-74
2023/10/17 06:31:43;;;;;;;11.80;5.05;;;9.10;99.90;;;;;;4118351;28;20054;-70
2023/10/17 06:33:43;;;;;;;8.20;4.65;;;9.00;99.90;;;;;;4123402;28;20039;-69
2023/10/17 06:35:52;;;;;;;10.43;5.47;;;9.10;99.90;;;;;;4117735;28;20205;-69
2023/10/17 06:37:57;;;;;;;8.55;5.32;;;9.10;99.90;;;;;;4124730;28;20073;-69
2023/10/17 06:39:59;;;;;;;8.52;5.07;;;9.00;99.90;;;;;;4124417;28;20030;-69
2023/10/17 06:42:14;;;;;;;8.77;5.18;;;9.00;99.90;;;;;;4123350;28;20489;-69
2023/10/17 06:44:26;;;;;;;7.90;4.60;;;9.00;99.90;;;;;;4122522;28;20868;-69
2023/10/17 06:46:31;;;;;;;8.85;5.03;;;9.00;99.90;;;;;;4118087;28;20038;-71
2023/10/17 06:48:32;;;;;;;12.27;6.20;;;9.00;99.90;;;;;;4105421;28;20048;-68
2023/10/17 06:53:15;;;;;;;10.25;5.53;;;9.00;99.90;;;;;;4049695;29;20079;-69
2023/10/17 06:55:21;;;;;;;9.98;6.00;;;8.90;99.90;;;;;;4049739;29;20092;-69
2023/10/17 06:57:24;;;;;;;11.13;5.30;;;8.90;99.90;;;;;;4047437;28;20076;-69
2023/10/17 06:59:33;;;;;;;9.57;5.13;;;8.90;99.90;;;;;;4108457;28;20588;-69
2023/10/17 07:01:34;;;;;;;8.52;5.07;;;8.90;99.90;;;;;;4123452;28;20038;-69
2023/10/17 07:03:35;;;;;;;9.75;6.47;;;9.00;99.90;;;;;;4123382;28;20038;-69
2023/10/17 07:05:36;;;;;;;10.48;6.00;;;8.80;99.90;;;;;;4110996;28;20053;-69
2023/10/17 07:07:45;;;;;;;11.60;5.88;;;8.90;99.90;;;;;;4123782;28;20073;-69
2023/10/17 07:09:52;;;;;;;11.90;5.88;;;8.80;99.90;;;;;;4128950;28;20035;-69
2023/10/17 07:11:52;;;;;;;9.57;6.25;;;8.80;99.90;;;;;;4107575;28;20042;-69
2023/10/17 07:16:12;;;;;;;12.10;6.70;;;8.80;99.90;;;;;;4126220;28;20085;-69
2023/10/17 07:18:55;;;;;;;9.57;6.13;;;8.70;99.90;;;;;;4125921;28;20762;-69
2023/10/17 07:22:57;;;;;;;11.98;6.13;;;8.70;99.90;;;;;;4122262;28;20462;-68
2023/10/17 07:25:01;;;;;;;11.25;5.63;;;8.80;99.90;;;;;;4123905;28;20414;-68
2023/10/17 07:27:19;;;;;;;8.65;5.72;;;8.80;99.90;;;;;;4118589;28;20591;-68
2023/10/17 07:29:22;;;;;;;9.05;5.10;;;8.80;99.90;;;;;;4124392;28;20505;-68
2023/10/17 07:31:23;;;;;;;9.32;5.30;;;8.90;99.90;;;;;;4126960;28;20065;-68
2023/10/17 07:33:24;;;;;;;11.95;5.93;;;8.90;99.90;;;;;;4122878;28;20038;-68
2023/10/17 07:35:25;;;;;;;10.15;5.38;;;9.00;99.90;;;;;;4108280;28;20511;-69
2023/10/17 07:37:25;;;;;;;10.55;5.22;;;9.10;99.90;;;;;;4125884;28;20060;-73
2023/10/17 07:39:29;;;;;;;9.38;5.70;;;9.10;99.90;;;;;;4127006;28;20034;-72
2023/10/17 07:41:36;;;;;;;10.30;5.45;;;9.10;99.90;;;;;;4109961;28;20059;-73
2023/10/17 07:43:36;;;;;;;9.70;5.82;;;9.10;99.90;;;;;;4126833;28;20054;-73
2023/10/17 07:45:40;;;;;;;10.90;5.60;;;9.20;99.90;;;;;;4124966;28;20027;-72
2023/10/17 07:47:51;;;;;;;11.93;5.60;;;9.30;99.90;;;;;;4126348;28;20042;-72
2023/10/17 07:49:52;;;;;;;9.32;5.30;;;9.30;99.90;;;;;;4128418;28;20038;-71
2023/10/17 07:51:54;;;;;;;9.38;5.68;;;9.40;99.90;;;;;;4123791;28;20121;-72
2023/10/17 07:53:54;;;;;;;8.80;5.13;;;9.40;99.90;;;;;;4125376;28;20540;-73
2023/10/17 07:56:04;;;;;;;11.55;5.80;;;9.50;99.90;;;;;;4129351;28;20112;-73
2023/10/17 07:58:09;;;;;;;9.57;5.75;;;9.50;99.90;;;;;;4129363;28;20034;-73
2023/10/17 08:02:48;;;;;;;12.60;6.28;;;9.50;99.90;;;;;;4081810;28;20034;-72
2023/10/17 08:04:50;;;;;;;9.40;6.00;;;9.50;99.90;;;;;;4127788;28;20482;-74
2023/10/17 08:06:51;;;;;;;11.95;6.80;;;9.60;99.90;;;;;;4128307;28;20121;-73
2023/10/17 08:08:52;;;;;;;12.05;7.28;;;9.50;99.90;;;;;;4111773;28;20050;-71
2023/10/17 08:10:58;;;;;;;11.23;6.45;;;9.40;99.90;;;;;;4128520;28;20790;-72
2023/10/17 08:12:58;;;;;;;12.05;6.93;;;9.50;99.90;;;;;;4096667;28;20114;-74
2023/10/17 08:14:59;;;;;;;16.45;8.40;;;9.60;99.90;;;;;;4119447;28;20076;-73
2023/10/17 08:17:00;;;;;;;17.55;9.65;;;9.50;99.90;;;;;;4129701;28;20030;-73
2023/10/17 08:19:13;;;;;;;14.13;8.85;;;9.50;99.90;;;;;;4123962;28;20042;-71
2023/10/17 08:23:34;;;;;;;23.33;10.68;;;9.40;99.90;;;;;;4126160;28;20434;-73
2023/10/17 08:25:52;;;;;;;15.35;9.82;;;9.50;99.90;;;;;;4122843;28;20049;-73
2023/10/17 08:27:55;;;;;;;17.08;9.65;;;9.40;99.90;;;;;;4121874;28;20475;-74
2023/10/17 08:30:14;;;;;;;14.30;8.80;;;9.40;99.90;;;;;;4126134;28;20553;-74
2023/10/17 08:34:24;;;;;;;16.45;9.50;;;9.60;99.90;;;;;;4124013;28;20394;-75
2023/10/17 08:36:41;;;;;;;15.65;9.57;;;9.60;99.90;;;;;;4123195;28;20035;-76
2023/10/17 08:38:41;;;;;;;14.07;9.48;;;9.80;99.90;;;;;;4128069;28;20438;-75
2023/10/17 08:40:43;;;;;;;14.38;9.38;;;9.90;99.90;;;;;;4126833;28;20118;-76
2023/10/17 08:42:49;;;;;;;18.75;9.82;;;10.00;99.90;;;;;;4127953;28;20050;-75
2023/10/17 08:44:50;;;;;;;14.38;7.60;;;10.20;99.90;;;;;;4127281;28;20039;-75
2023/10/17 08:46:51;;;;;;;11.75;7.60;;;10.40;99.90;;;;;;4110207;28;20027;-68
2023/10/17 08:48:56;;;;;;;13.65;7.80;;;10.60;99.90;;;;;;4128883;28;20523;-68
2023/10/17 08:50:57;;;;;;;12.98;7.78;;;10.70;99.90;;;;;;4127237;28;20058;-68
2023/10/17 08:53:02;;;;;;;15.32;8.95;;;10.90;99.90;;;;;;4111786;28;20038;-68
2023/10/17 08:55:03;;;;;;;10.65;7.47;;;11.10;99.90;;;;;;4125128;28;20053;-69
2023/10/17 08:57:07;;;;;;;13.90;7.90;;;11.40;99.90;;;;;;4125937;28;20046;-68
2023/10/17 08:59:09;;;;;;;13.45;8.20;;;11.40;99.90;;;;;;4127203;28;20042;-68
2023/10/17 09:01:17;;;;;;;13.85;7.93;;;11.40;99.90;;;;;;4129215;28;20045;-68
2023/10/17 09:03:31;;;;;;;12.68;7.18;;;11.50;99.90;;;;;;4126593;28;20499;-68
2023/10/17 09:05:32;;;;;;;13.23;7.95;;;11.60;99.90;;;;;;4127276;28;20054;-68
2023/10/17 09:07:43;;;;;;;16.10;7.75;;;11.60;99.90;;;;;;4127391;28;20108;-68
2023/10/17 09:09:44;;;;;;;13.55;7.47;;;11.60;99.90;;;;;;4127508;28;20050;-68
2023/10/17 09:12:01;;;;;;;16.67;6.70;;;11.70;99.90;;;;;;4129545;28;20117;-68
2023/10/17 09:14:17;;;;;;;11.07;6.40;;;11.70;99.90;;;;;;4094592;28;20119;-68
2023/10/17 09:16:17;;;;;;;11.00;5.95;;;11.70;99.90;;;;;;4126222;28;20051;-68
2023/10/17 09:18:27;;;;;;;15.25;5.35;;;11.80;99.90;;;;;;4127756;28;20065;-69
2023/10/17 09:20:35;;;;;;;7.95;4.78;;;11.80;99.90;;;;;;4126291;28;20077;-68
2023/10/17 09:22:37;;;;;;;8.75;4.78;;;11.90;99.90;;;;;;4127700;28;20046;-68
2023/10/17 09:24:37;;;;;;;10.35;4.78;;;12.00;99.90;;;;;;4129871;28;20034;-68
2023/10/17 09:26:46;;;;;;;9.00;5.43;;;12.10;99.90;;;;;;4126363;28;20434;-68
2023/10/17 09:28:48;;;;;;;15.88;6.60;;;12.30;99.90;;;;;;4123321;28;20037;-69
2023/10/17 09:31:06;;;;;;;16.70;7.38;;;12.40;99.90;;;;;;4121011;28;20117;-68
2023/10/17 09:33:07;;;;;;;13.45;6.28;;;12.40;99.90;;;;;;4099324;28;20442;-68
2023/10/17 09:35:15;;;;;;;11.10;5.53;;;12.40;99.90;;;;;;4127434;28;20042;-69
2023/10/17 09:37:16;;;;;;;15.25;6.30;;;12.60;99.90;;;;;;4126719;28;20035;-69
2023/10/17 09:39:24;;;;;;;10.18;5.30;;;12.70;99.90;;;;;;4127785;28;20039;-68
2023/10/17 09:41:26;;;;;;;7.88;4.32;;;12.80;99.90;;;;;;4099081;28;20063;-68
2023/10/17 09:43:27;;;;;;;8.00;3.95;;;13.00;99.90;;;;;;4109278;28;20050;-69
2023/10/17 09:45:34;;;;;;;8.25;3.95;;;13.10;99.90;;;;;;4125168;28;20045;-69
2023/10/17 09:47:39;;;;;;;8.02;4.95;;;13.10;99.90;;;;;;4093671;28;20507;-68
2023/10/17 09:49:44;;;;;;;11.05;4.93;;;13.00;99.90;;;;;;4125213;28;20364;-68
2023/10/17 09:51:47;;;;;;;9.52;4.70;;;13.10;99.90;;;;;;4124855;28;20085;-67
2023/10/17 09:53:53;;;;;;;10.30;4.82;;;13.00;99.90;;;;;;4126629;28;20078;-68
2023/10/17 09:55:56;;;;;;;10.68;4.85;;;13.00;99.90;;;;;;4124946;28;20050;-68
2023/10/17 09:58:03;;;;;;;14.38;5.20;;;13.10;99.90;;;;;;4127529;28;20371;-70
2023/10/17 10:00:17;;;;;;;8.25;4.60;;;13.00;99.90;;;;;;4127509;28;20040;-70
2023/10/17 10:02:20;;;;;;;7.97;4.20;;;13.00;99.90;;;;;;4127424;28;20113;-68
2023/10/17 10:04:21;;;;;;;9.63;4.63;;;13.00;99.90;;;;;;4110492;28;20039;-69
2023/10/17 10:06:25;;;;;;;6.22;3.83;;;13.10;99.90;;;;;;4126550;28;20045;-69
2023/10/17 10:08:33;;;;;;;6.10;3.92;;;13.30;99.90;;;;;;4099343;28;20050;-70
2023/10/17 10:10:46;;;;;;;8.10;4.32;;;13.40;99.90;;;;;;4125975;28;20038;-69
2023/10/17 10:12:58;;;;;;;7.55;4.45;;;13.40;99.90;;;;;;4126442;28;20049;-69
2023/10/17 10:14:59;;;;;;;6.82;3.72;;;13.40;99.90;;;;;;4126486;28;20053;-70
2023/10/17 10:17:03;;;;;;;5.00;3.55;;;13.50;99.90;;;;;;4126608;28;20030;-69
2023/10/17 10:19:04;;;;;;;5.28;3.70;;;13.50;99.90;;;;;;4127191;28;20042;-70
2023/10/17 10:21:07;;;;;;;7.15;3.20;;;13.60;99.90;;;;;;4126781;28;20065;-69
2023/10/17 10:23:09;;;;;;;6.45;3.20;;;13.60;99.90;;;;;;4127406;28;20113;-70
2023/10/17 10:25:09;;;;;;;5.75;2.97;;;13.60;99.90;;;;;;4110989;28;20030;-70
2023/10/17 10:27:10;;;;;;;5.40;3.15;;;13.70;99.90;;;;;;4126281;28;20076;-70
2023/10/17 10:29:23;;;;;;;4.38;2.97;;;13.70;99.90;;;;;;4127431;28;20034;-67
2023/10/17 10:31:26;;;;;;;;;;;13.80;99.90;;;;;;4127914;28;20050;-69
2023/10/17 10:33:30;;;;;;;8.13;3.88;;;13.80;99.90;;;;;;4111166;28;20390;-69
2023/10/17 10:35:32;;;;;;;7.90;3.58;;;13.70;99.90;;;;;;4125806;28;20053;-69
2023/10/17 10:37:48;;;;;;;8.88;3.65;;;13.70;99.90;;;;;;4094205;28;20318;-70
2023/10/17 10:40:12;;;;;;;5.32;3.40;;;13.70;99.90;;;;;;4126065;28;20042;-69
2023/10/17 10:42:13;;;;;;;6.93;3.38;;;13.70;99.90;;;;;;4110085;28;20035;-69
2023/10/17 10:44:14;;;;;;;6.35;2.83;;;13.50;99.90;;;;;;4107525;28;20118;-70
2023/10/17 10:46:17;;;;;;;10.57;3.03;;;13.50;99.90;;;;;;4125145;28;20038;-69
2023/10/17 10:48:21;;;;;;;5.25;2.60;;;13.50;99.90;;;;;;4125552;28;20042;-70
2023/10/17 10:50:22;;;;;;;3.42;2.28;;;13.50;99.90;;;;;;4109838;28;20031;-70
2023/10/17 10:52:24;;;;;;;4.95;2.45;;;13.60;99.90;;;;;;4126180;28;20528;-70
2023/10/17 10:54:45;;;;;;;6.82;2.72;;;13.60;99.90;;;;;;4125837;28;20040;-70
2023/10/17 10:56:53;;;;;;;5.50;3.20;;;13.60;99.90;;;;;;4123182;28;20132;-69
2023/10/17 10:58:57;;;;;;;3.67;2.55;;;13.50;99.90;;;;;;4124957;28;20030;-70
2023/10/17 11:01:02;;;;;;;9.25;2.28;;;13.50;99.90;;;;;;4125958;28;20035;-70
2023/10/17 11:03:06;;;;;;;9.50;2.47;;;13.50;99.90;;;;;;4125394;28;20041;-70
2023/10/17 11:05:10;;;;;;;6.88;3.08;;;13.60;99.90;;;;;;4110649;28;20050;-70
2023/10/17 11:07:20;;;;;;;3.97;2.08;;;13.60;99.90;;;;;;4112063;28;20061;-69
2023/10/17 11:09:24;;;;;;;4.32;2.20;;;13.60;99.90;;;;;;4108063;28;20498;-69
2023/10/17 11:11:25;;;;;;;5.03;2.60;;;13.70;99.90;;;;;;4125009;28;20479;-70
2023/10/17 11:13:48;;;;;;;5.80;2.88;;;13.70;99.90;;;;;;4128506;28;20077;-70
2023/10/17 11:15:49;;;;;;;4.35;2.30;;;13.70;99.90;;;;;;4105403;28;20035;-69
2023/10/17 11:17:51;;;;;;;5.53;2.67;;;13.70;99.90;;;;;;4126042;28;20058;-70
2023/10/17 11:19:55;;;;;;;3.83;2.65;;;13.80;99.90;;;;;;4110284;28;20531;-70
2023/10/17 11:21:57;;;;;;;5.10;2.85;;;13.80;99.90;;;;;;4117311;28;20034;-71
2023/10/17 11:24:06;;;;;;;4.72;2.60;;;13.90;99.90;;;;;;4129052;28;20113;-71
2023/10/17 11:26:10;;;;;;;7.53;2.97;;;13.90;99.90;;;;;;4128392;28;20084;-70
2023/10/17 11:28:11;;;;;;;5.90;3.05;;;13.90;99.90;;;;;;4129774;28;20027;-70
2023/10/17 11:30:18;;;;;;;5.28;2.60;;;13.90;99.90;;;;;;4127441;28;20034;-72
2023/10/17 11:32:19;;;;;;;10.32;3.53;;;13.90;99.90;;;;;;4121814;28;20529;-70
2023/10/17 11:34:30;;;;;;;9.32;4.10;;;13.90;99.90;;;;;;4128727;28;20035;-70
2023/10/17 11:36:49;;;;;;;8.90;3.60;;;13.90;99.90;;;;;;4127905;28;20417;-70
2023/10/17 11:38:57;;;;;;;5.53;2.95;;;13.80;99.90;;;;;;4128937;28;20076;-70
2023/10/17 11:40:59;;;;;;;5.57;2.95;;;13.80;99.90;;;;;;4128546;28;20042;-71
2023/10/17 11:43:16;;;;;;;6.00;2.77;;;13.70;99.90;;;;;;4129158;28;20035;-71
2023/10/17 11:45:33;;;;;;;6.35;2.83;;;13.60;99.90;;;;;;4117803;28;20270;-70
2023/10/17 11:47:37;;;;;;;5.95;2.92;;;13.70;99.90;;;;;;4128452;28;20042;-70
2023/10/17 11:49:39;;;;;;;4.88;2.58;;;13.80;99.90;;;;;;4114834;28;25340;-71
2023/10/17 11:51:40;;;;;;;3.58;2.40;;;13.80;99.90;;;;;;4120739;28;20034;-70
2023/10/17 11:54:03;;;;;;;10.68;3.22;;;13.90;99.90;;;;;;4129027;28;20030;-70
2023/10/17 11:56:05;;;;;;;5.43;2.80;;;13.80;99.90;;;;;;4127346;28;20038;-71
2023/10/17 11:58:05;;;;;;;4.95;2.75;;;13.80;99.90;;;;;;4128211;28;20066;-70
2023/10/17 12:02:18;;;;;;;4.47;2.70;;;13.80;99.90;;;;;;4128935;28;20034;-70
2023/10/17 12:04:19;;;;;;;5.75;2.17;;;13.80;99.90;;;;;;4111141;28;20121;-70
2023/10/17 12:06:23;;;;;;;5.00;2.67;;;13.70;99.90;;;;;;4093953;28;20134;-70
2023/10/17 12:08:29;;;;;;;5.72;2.80;;;13.80;99.90;;;;;;4101909;28;20517;-71
2023/10/17 12:10:36;;;;;;;3.38;2.58;;;13.70;99.90;;;;;;4127739;28;20041;-71
2023/10/17 12:12:38;;;;;;;5.90;2.47;;;13.80;99.90;;;;;;4128121;28;20518;-71
2023/10/17 12:14:38;;;;;;;4.50;2.60;;;13.80;99.90;;;;;;4128774;28;20487;-70
2023/10/17 12:16:39;;;;;;;4.93;2.88;;;13.80;99.90;;;;;;4127687;28;20037;-67
2023/10/17 12:18:39;;;;;;;4.63;2.38;;;13.80;99.90;;;;;;4128357;28;20034;-67
2023/10/17 12:20:40;;;;;;;4.47;2.35;;;13.80;99.90;;;;;;4127775;28;20082;-67
2023/10/17 12:22:41;;;;;;;4.80;2.78;;;13.80;99.90;;;;;;4126775;28;20035;-67
2023/10/17 12:24:42;;;;;;;3.42;2.50;;;13.80;99.90;;;;;;4126832;28;20030;-66
2023/10/17 12:26:45;;;;;;;3.67;2.28;;;13.80;99.90;;;;;;4094250;28;20031;-66
2023/10/17 12:28:46;;;;;;;3.20;2.10;;;13.80;99.90;;;;;;4128813;28;20022;-66
2023/10/17 12:30:46;;;;;;;3.35;2.17;;;13.90;99.90;;;;;;4127450;28;20044;-67
2023/10/17 12:32:47;;;;;;;3.78;2.00;;;14.00;99.90;;;;;;4128611;28;20487;-66
2023/10/17 12:34:49;;;;;;;2.58;1.90;;;13.90;99.90;;;;;;4127396;28;20038;-66
2023/10/17 12:36:50;;;;;;;8.45;2.58;;;14.00;99.90;;;;;;4110037;28;20041;-67
2023/10/17 12:38:52;;;;;;;6.07;2.28;;;13.90;99.90;;;;;;4128423;28;20058;-67
2023/10/17 12:40:53;;;;;;;5.30;2.70;;;14.00;99.90;;;;;;4129066;28;20026;-66
2023/10/17 12:42:56;;;;;;;10.40;2.90;;;14.00;99.90;;;;;;4131385;28;20066;-66